Weather at Flying Tom Airport

Public forecast

Using degrees Fahrenheit for public forecast. Weather courtesy of forecast.io.

Closest aviation weather report (METAR) to Flying Tom Airport

Closest report is Corvallis Municipal Airport, 10.2 nm (18.9 km) SSW. Retrieved 2021/10/26 07:56 UTC (12 minutes ago):

KCVO 260756Z AUTO 17011KT 10SM OVC031 09/09 A2982 RMK AO2 RAE01 SLP099 P0000 T00940089 401280083

Closest aviation forecast (TAF) to Flying Tom Airport

Closest forecast is Salem Municipal Airport/McNary Field, 17.6 nm (32.5 km) NNE. Retrieved 2021/10/26 06:22 UTC (2 hours ago):

TAF KSLE 260520Z 2606/2706 19010KT P6SM VCSH SCT025 BKN040 FM261200 16012G20KT P6SM -RA SCT015 OVC025 FM262000 20014G25KT P6SM -SHRA SCT030 BKN045 FM270400 20010KT P6SM VCSH BKN050